YPPH/PER METAR and TAF weather

Enter ICAO airport designator
Station Type Date Time Source
YPPH METAR 2020/08/05 15:00 UTC NOAA

YPPH 051500Z 13004KT CAVOK 10/06 Q1024


Station Type Date Time Source
YPPH Decoded METAR 2020/08/05 15:00 UTC NOAA

Belmont Perth Airport , Australia (YPPH) 31-56S 115-57E 29M
Aug 05, 2020 - 11:00 AM EDT / 2020.08.05 1500 UTC
Wind: from the SE (130 degrees) at 5 MPH (4 KT):0
Visibility: greater than 7 mile(s):0
Temperature: 50 F (10 C)
Dew Point: 42 F (6 C)
Relative Humidity: 76%
Pressure (altimeter): 30.24 in. Hg (1024 hPa)
ob: YPPH 051500Z 13004KT CAVOK 10/06 Q1024
cycle: 15

Station Type Date Time Source
YPPH TAF 2020/08/05 12:33 UTC NOAA

TAF YPPH 051101Z 0512/0618 18005KT CAVOK
FM060200 11010KT 9999 SCT040
FM061200 17007KT CAVOK

Example: see airport list